In Rescue
 
Open Full Screen Window  High Contrast Mode
Wind Gusting 00 knots
08
May 25, 2022 8:21 PM CDT
Present Weather: Mist
Weather Information
Wind Direction
  020 °
Wind Speed
  08 kt (9 mph)
Wind Gust
  00 kt (0 mph)
Altimeter
29.78 in
Visibility
3 SM
Temperature
11° C
52° F
Dewpoint
10° C
50° F
Humidity
94%
1hr Rain Fall
00.00 in.
24hr Rain Fall
00.06 in.
Sky Condition
Overcast @ 300 ft
LIFR

METAR KFKA 260121Z AUTO 02008KT 3SM BR OVC003 11/10 A2978 RMK AO2 T01050100

FAA Disclaimer: The data displayed is for advisory purposes only and is not to be used for flight planning or operations.